Date,TemperatureHighF,TemperatureAvgF,TemperatureLowF,DewpointHighF,DewpointAvgF,DewpointLowF,HumidityHigh,HumidityAvg,HumidityLow,PressureMaxIn,PressureMinIn,WindSpeedMaxMPH,WindSpeedAvgMPH,GustSpeedMaxMPH,PrecipitationSumIn
2013-1-1,44,40,36,44,38,32,100,93,84,30.84,30.59,19,7,19,0.01
2013-1-2,38,34,29,32,30,28,98,84,74,30.90,30.81,14,5,14,0.00
2013-1-3,48,38,27,32,29,26,100,73,44,31.02,30.88,16,4,21,0.00
2013-1-4,48,42,37,34,31,29,76,64,49,31.09,30.92,9,2,10,0.00
2013-1-5,50,42,35,40,38,32,99,85,64,30.93,30.78,14,4,14,0.00
2013-1-6,55,41,32,35,30,25,100,69,32,30.96,30.84,17,4,17,0.00
2013-1-7,55,43,30,37,30,22,76,61,43,30.90,30.47,14,4,15,0.00
2013-1-8,49,47,45,49,43,34,100,87,62,30.67,30.52,15,5,15,0.62
2013-1-9,56,53,48,56,53,48,100,100,99,30.69,30.51,31,10,32,1.54
2013-1-10,59,55,48,59,51,45,100,87,65,30.57,30.46,23,8,24,0.03
2013-1-11,70,58,46,62,51,44,93,79,53,30.53,30.34,26,7,26,0.00
2013-1-12,73,55,36,69,54,34,100,95,83,30.49,30.20,28,9,32,0.12
2013-1-13,42,35,32,34,28,24,91,74,52,30.78,30.47,24,12,27,0.00
2013-2-12,48,46,43,47,45,40,100,97,90,30.58,30.40,23,6,23,0.45
2013-2-13,54,44,39,40,37,34,93,78,49,30.73,30.57,23,7,23,0.00
2013-2-14,67,50,36,42,37,32,97,65,28,30.68,30.56,14,4,14,0.00
2013-2-15,50,46,35,39,28,14,77,52,28,30.95,30.65,24,7,26,0.00
2013-2-16,53,42,33,31,27,23,71,56,35,30.98,30.74,14,3,14,0.00
2013-2-17,68,53,37,45,33,27,77,51,22,30.74,30.48,31,9,31,0.00
2013-2-18,77,61,51,58,45,32,83,58,30,30.68,30.31,32,12,32,0.00
2013-2-19,51,44,36,32,30,23,75,59,36,30.90,30.68,15,4,16,0.00
2013-3-5,56,51,44,24,20,17,43,30,23,30.93,30.83,27,11,29,0.00
2013-3-6,59,46,33,25,22,15,66,40,20,31.03,30.77,14,4,14,0.00
2013-3-7,69,55,41,34,27,19,52,36,22,30.82,30.66,20,7,23,0.00
2013-3-8,64,58,52,56,50,34,84,75,44,30.77,30.57,18,7,18,0.00
2013-3-9,69,64,59,65,60,55,98,87,80,30.57,30.20,25,10,26,0.01
2013-3-10,65,54,49,62,46,34,99,77,54,30.51,30.26,30,10,30,0.74
2013-3-11,56,55,55,21,20,18,26,25,23,30.57,30.56,16,10,16,0.00
2013-3-13,67,60,47,36,33,30,63,37,28,31.02,30.88,14,5,14,0.00
2013-3-14,75,60,48,47,39,31,62,47,33,30.93,30.74,24,8,26,0.00
2013-3-15,78,65,52,54,48,42,94,58,31,30.75,30.46,27,10,29,0.00
2013-3-16,80,68,57,60,54,47,93,64,44,30.46,30.25,32,12,32,0.00
2013-3-17,74,67,59,62,57,49,88,70,49,30.36,30.23,26,8,26,0.00
2013-3-18,69,61,53,64,49,37,96,65,43,30.58,30.20,26,8,26,0.00
2013-3-19,67,56,45,43,37,33,79,51,35,30.69,30.52,21,7,22,0.00
2013-3-20,66,56,45,36,32,25,67,42,23,30.87,30.60,15,5,17,0.00
2013-3-21,68,59,49,56,41,30,72,52,41,30.60,30.15,29,10,29,0.00
2013-3-22,66,53,46,61,50,43,100,89,68,30.42,30.14,22,7,23,0.00
2013-3-23,53,49,46,51,48,46,100,95,85,30.45,30.22,25,6,26,0.04
2013-3-24,51,45,39,49,30,21,99,59,36,30.74,30.35,36,14,36,0.03
2013-3-25,52,42,33,25,20,14,68,42,23,30.97,30.74,24,9,29,0.00
2013-3-26,55,42,31,24,20,16,61,43,28,31.08,30.88,13,3,14,0.00
2013-3-27,69,52,37,41,31,23,62,45,28,30.90,30.67,24,8,26,0.00
2013-3-28,69,61,50,56,51,41,86,70,57,30.80,30.66,21,8,23,0.00
2013-3-29,74,66,60,59,57,56,89,73,57,30.77,30.60,21,8,23,0.00
2013-3-30,75,65,55,64,60,55,99,84,65,30.67,30.46,28,6,31,0.96
2013-3-31,72,66,57,64,57,49,100,76,52,30.56,30.37,25,6,32,0.63
2013-4-1,78,66,50,53,49,44,93,58,33,30.65,30.51,13,3,14,0.00
2013-4-2,71,64,50,63,56,41,88,75,61,30.59,30.47,26,8,28,0.00
2013-4-3,53,48,44,48,45,43,100,91,75,30.72,30.52,26,8,31,0.65
2013-4-4,51,45,42,44,41,40,96,86,71,30.77,30.67,18,7,19,0.04
2013-4-5,67,54,43,50,44,40,92,72,46,30.82,30.61,13,5,14,0.00
2013-4-6,72,63,53,58,52,47,88,68,47,30.61,30.41,26,10,31,0.00
2013-4-7,72,64,59,62,59,56,91,82,70,30.49,30.34,24,9,26,0.00
2013-4-24,61,55,44,41,36,33,68,50,38,30.88,30.78,18,5,18,0.00
2013-4-25,72,60,48,46,40,29,65,48,31,30.92,30.73,18,6,18,0.00
2013-4-26,76,66,57,67,57,43,87,73,52,30.76,30.55,20,7,21,0.00
2013-4-27,72,68,59,66,60,55,91,76,56,30.69,30.55,18,7,21,0.00
2013-4-28,79,65,52,65,59,51,99,81,59,30.62,30.44,14,4,16,0.00
2013-4-29,82,72,60,67,61,56,98,72,45,30.49,30.37,18,6,19,0.00
2013-4-30,81,70,61,65,61,56,95,75,51,30.42,30.32,18,6,19,0.00
2013-5-1,83,72,63,67,63,58,96,76,45,30.54,30.36,18,7,18,0.00
2013-5-2,66,52,43,62,48,35,96,84,72,30.89,30.51,31,12,34,0.04
2013-5-3,64,52,40,37,32,22,82,52,23,30.87,30.60,30,10,34,0.02
2013-5-4,70,56,40,44,34,23,87,49,18,30.60,30.45,32,7,34,0.00
2013-5-5,65,55,46,47,42,39,78,63,48,30.72,30.59,19,6,19,0.00
2013-5-6,75,63,47,56,50,44,94,66,39,30.69,30.56,16,3,18,0.00
2013-5-7,82,70,56,55,52,48,80,55,33,30.65,30.51,13,4,13,0.00
2013-5-8,84,72,61,60,56,52,78,59,38,30.58,30.44,24,7,24,0.00
2013-5-9,72,68,65,68,64,58,99,88,63,30.55,30.42,19,6,21,0.18
2013-5-10,79,70,63,67,63,58,100,81,55,30.61,30.44,14,3,14,0.17
2013-5-11,79,69,60,59,52,44,89,57,31,30.74,30.58,21,6,22,0.00
2013-5-12,76,66,56,53,41,31,73,43,20,30.84,30.71,21,5,22,0.00
2013-5-13,84,69,53,51,47,40,79,49,29,30.82,30.69,19,6,19,0.00
2013-5-14,84,72,59,62,55,47,91,58,30,30.75,30.56,23,7,23,0.00
2013-5-15,77,70,61,69,66,60,100,89,68,30.62,30.36,28,10,31,1.82
2013-5-16,79,69,62,71,66,62,100,91,75,30.44,30.32,21,7,31,0.05
2013-5-17,87,78,71,74,72,70,100,83,61,30.43,30.36,19,6,21,0.05
2013-5-18,90,80,71,74,70,67,91,74,53,30.49,30.34,23,9,26,0.00
2013-5-19,88,79,70,71,69,67,95,73,54,30.43,30.25,31,11,32,0.00
2013-5-20,88,79,73,73,70,68,87,74,57,30.40,30.23,27,11,28,0.00
2013-5-21,83,72,62,72,67,60,100,85,67,30.44,30.23,37,8,40,1.72
2013-5-22,83,69,56,65,60,54,100,76,40,30.53,30.41,11,3,12,0.00
2013-5-23,86,76,69,73,70,64,99,82,59,30.65,30.45,21,6,23,0.00
2013-5-24,85,77,68,74,71,64,97,81,62,30.78,30.58,18,6,20,0.49
2013-5-25,82,72,67,72,68,59,98,88,62,30.74,30.61,37,5,37,0.06
2013-5-26,86,77,70,72,70,68,98,81,59,30.67,30.51,19,7,20,0.02
2013-5-27,86,78,71,70,68,66,92,74,54,30.57,30.37,24,9,24,0.04
2013-5-28,85,78,71,70,67,64,90,70,51,30.47,30.35,29,10,29,0.00
2013-5-29,82,76,73,72,70,68,90,80,67,30.42,30.30,31,11,32,0.01
2013-5-30,87,79,74,74,72,69,89,78,61,30.38,30.27,27,11,29,0.01
2013-5-31,89,82,76,74,72,70,88,74,54,30.42,30.25,27,10,27,0.00
2013-6-1,86,79,75,75,72,68,88,79,65,30.53,30.29,26,9,26,0.00
2013-6-2,81,74,66,68,57,47,82,57,32,30.65,30.51,19,6,19,0.00
2013-6-3,87,74,62,64,59,55,84,62,37,30.57,30.41,14,5,14,0.00
2013-6-4,89,78,68,70,67,63,87,69,50,30.60,30.37,21,7,26,0.00
2013-6-5,89,80,71,71,69,64,90,69,45,30.53,30.32,23,6,23,0.00
2013-6-6,80,73,67,71,68,64,98,83,68,30.52,30.37,18,5,19,0.78
2013-6-7,82,73,63,66,59,52,94,65,38,30.58,30.46,15,4,16,0.00
2013-6-8,86,75,61,64,60,55,89,62,42,30.52,30.37,16,5,17,0.00
2013-6-9,81,73,68,70,67,62,99,82,61,30.52,30.42,20,5,20,0.19
2013-6-10,94,89,78,72,67,61,69,49,35,30.54,30.47,14,5,15,0.00
2013-6-11,92,82,73,75,71,67,94,70,47,30.61,30.50,18,7,18,0.00
2013-6-12,92,82,74,74,71,68,97,72,47,30.65,30.50,21,6,21,0.00
2013-6-13,95,84,74,73,70,66,90,66,40,30.64,30.47,15,4,15,0.00
2013-6-14,94,85,74,74,70,67,88,64,42,30.57,30.46,13,3,13,0.00
2013-6-15,89,81,73,77,72,67,87,76,62,30.59,30.46,25,5,26,0.09
2013-6-16,93,83,75,75,71,67,94,70,43,30.59,30.45,14,5,16,0.09
2013-6-17,88,80,68,78,72,66,98,80,62,30.62,30.43,27,5,30,0.72
2013-6-18,81,76,73,74,70,68,90,82,69,30.59,30.45,20,5,20,0.00
2013-6-19,90,79,70,75,72,69,99,79,52,30.58,30.45,14,4,15,0.00
2013-6-20,94,83,76,73,70,65,91,68,42,30.63,30.51,19,7,19,0.00
2013-6-21,94,82,74,74,71,65,89,70,40,30.66,30.55,18,7,19,0.00
2013-6-22,93,84,74,73,70,66,89,63,43,30.64,30.46,19,8,20,0.00
2013-9-3,93,90,87,70,68,66,54,48,42,30.56,30.51,13,6,14,0.00
2013-9-5,99,92,82,66,62,58,55,37,27,30.63,30.55,13,5,14,0.00
2013-9-6,98,86,74,71,64,58,71,50,31,30.66,30.51,20,4,21,0.00
2013-9-7,98,86,75,72,66,60,81,54,30,30.62,30.47,25,4,27,0.00
2013-9-8,79,76,73,67,66,65,83,73,65,30.54,30.53,10,2,10,0.00
2013-9-17,92,88,81,67,64,60,61,47,35,30.56,30.50,13,4,14,0.00
2013-9-18,83,79,76,70,67,66,73,68,62,30.58,30.52,10,3,11,0.00
2013-9-23,85,78,65,59,55,50,72,47,32,30.44,30.31,16,5,16,0.00
2013-9-24,92,78,64,67,57,46,91,54,22,30.50,30.39,17,4,19,0.00
2013-9-25,93,76,58,59,52,43,89,50,21,30.47,30.34,10,2,10,0.00
2013-9-26,93,79,66,60,56,51,64,46,28,30.46,30.36,19,5,21,0.00
2013-9-27,87,78,67,71,66,59,82,67,58,30.52,30.41,18,6,19,0.00
2013-9-28,87,76,66,75,70,64,100,85,65,30.60,30.44,22,8,23,1.34
2013-9-29,66,65,64,65,63,61,96,93,86,30.60,30.57,13,5,14,0.00
2013-10-9,81,73,62,58,55,51,79,55,37,30.66,30.55,16,6,16,0.00
2013-10-10,82,70,59,62,58,52,93,68,39,30.64,30.46,19,6,19,0.00
2013-10-11,84,75,66,70,67,60,96,78,61,30.53,30.39,20,8,23,0.00
2013-10-12,88,77,70,75,71,66,96,82,57,30.64,30.45,26,6,27,0.01
2013-10-13,70,69,68,68,67,66,98,95,89,30.67,30.62,7,2,9,0.00
2013-10-14,69,68,68,69,68,68,100,100,100,30.65,30.64,11,6,12,0.07
2013-10-15,78,64,54,73,63,53,100,97,86,30.63,30.48,18,8,19,1.88
2013-10-16,62,55,52,55,53,49,100,92,66,30.66,30.56,17,6,19,0.27
2013-10-17,71,57,48,52,47,40,94,71,37,30.70,30.55,10,3,11,0.00
2013-10-18,70,60,50,57,52,48,95,75,48,30.64,30.46,24,4,24,0.00
2013-10-19,64,52,42,50,41,34,89,68,38,30.78,30.64,22,7,24,0.00
2013-10-20,48,45,43,43,41,40,92,86,78,30.65,30.60,0,0,2,0.00
2013-10-21,71,60,52,63,54,49,89,80,68,30.67,30.50,20,7,23,0.00
2013-10-22,74,58,43,50,44,36,92,64,30,30.73,30.58,11,3,14,0.00
2013-10-23,81,64,47,54,49,44,94,63,29,30.70,30.60,10,2,10,0.00
2013-10-24,78,65,52,54,49,43,86,59,39,30.85,30.63,15,4,16,0.00
2013-10-25,66,57,50,47,44,38,85,63,46,30.98,30.81,18,7,23,0.00
2013-10-26,75,61,51,63,54,46,100,79,65,30.81,30.59,17,6,24,1.38
2013-10-27,68,62,59,60,58,55,99,87,68,30.70,30.57,9,2,17,0.00
2013-10-28,77,66,56,67,62,55,100,89,71,30.68,30.57,13,5,15,0.00
2013-10-29,75,72,68,70,68,66,97,89,82,30.66,30.56,19,8,19,0.00
2013-10-30,72,68,65,70,66,63,99,95,88,30.60,30.37,23,9,31,0.09
2013-10-31,75,68,55,71,56,38,100,71,29,30.45,30.24,33,8,33,0.09
2013-11-1,74,62,48,53,48,43,93,65,40,30.64,30.39,14,4,18,0.00
2013-11-2,66,58,47,44,38,31,72,50,29,30.86,30.64,15,6,21,0.00
2013-11-3,65,54,42,46,40,35,79,60,39,30.78,30.57,19,6,21,0.00
2013-11-4,60,57,52,60,54,45,100,89,66,30.67,30.56,13,6,20,0.51
2013-11-5,69,64,60,68,64,60,100,100,98,30.63,30.50,15,7,19,0.41
2013-11-6,69,56,44,69,51,39,100,85,63,30.93,30.52,24,8,26,0.09
2013-11-7,62,50,40,45,40,34,92,71,40,31.07,30.92,10,2,12,0.00
2013-11-8,64,54,41,46,43,36,98,70,37,30.95,30.70,14,4,17,0.00
2013-11-9,65,58,54,50,48,45,81,69,57,30.81,30.69,14,6,16,0.00
2013-11-10,67,57,49,48,46,39,89,69,39,30.92,30.79,8,2,10,0.00
2013-11-11,73,58,46,53,49,43,94,74,48,30.85,30.73,11,2,12,0.00
2013-11-12,60,47,35,57,33,20,95,61,32,31.25,30.84,28,9,28,0.00
2013-11-13,51,39,29,28,24,21,78,56,35,31.26,30.93,11,3,11,0.00
2013-11-14,58,46,30,46,33,24,89,62,32,30.94,30.59,19,6,21,0.00
2013-11-15,69,59,52,59,52,46,92,79,61,30.59,30.40,14,6,16,0.00
2013-11-16,74,68,61,70,64,59,97,88,75,30.43,30.25,22,10,30,0.00
2013-11-17,84,75,64,70,58,37,91,60,31,30.57,30.26,21,8,24,0.00
2013-11-18,69,62,53,39,32,27,49,34,21,30.74,30.57,14,6,18,0.00
2013-11-19,68,58,53,40,34,28,52,40,25,30.76,30.59,26,8,26,0.00
2013-11-20,64,56,44,52,40,32,82,57,44,30.61,30.47,18,7,18,0.00
2013-11-21,71,64,44,69,62,43,99,93,81,30.76,30.51,21,7,27,0.16
2013-11-22,44,37,34,43,36,34,100,99,93,31.00,30.74,22,11,27,0.01
2013-11-23,42,38,35,39,35,26,100,90,65,31.10,30.98,16,8,21,0.05
2013-11-24,36,33,31,28,25,22,80,71,61,31.15,30.91,13,6,16,0.32
2013-11-25,36,34,32,36,33,26,100,95,74,30.91,30.70,11,4,11,0.58
2013-11-26,36,35,35,34,33,33,98,93,90,30.74,30.67,14,8,16,0.00
2013-12-5,35,31,29,32,27,22,100,86,61,30.72,30.63,19,9,26,0.03
2013-12-6,32,27,23,32,26,21,100,96,91,31.06,30.65,13,0,14,0.62
2013-12-7,26,23,19,26,22,17,100,95,89,31.09,30.83,0,0,0,0.00
2013-12-8,33,30,25,33,30,25,100,100,100,30.83,30.60,0,0,0,0.01
2013-12-9,32,31,28,32,30,23,100,95,83,30.95,30.71,0,0,0,0.00
2013-12-10,27,24,21,23,21,18,90,86,82,31.04,30.96,11,3,11,0.00
2013-12-17,70,56,43,40,39,37,81,55,32,30.83,30.79,6,1,8,0.00
2013-12-18,68,56,37,44,39,35,94,60,37,30.82,30.69,13,6,21,0.00
2013-12-19,72,66,50,63,52,40,99,66,37,30.69,30.30,31,10,32,0.00
2013-12-20,68,57,35,64,54,35,100,91,76,30.42,30.31,23,8,25,0.00
2013-12-21,54,44,34,54,44,34,100,100,100,30.32,30.06,16,4,24,1.35
2013-12-22,48,37,30,48,32,26,100,83,61,30.95,30.32,19,8,22,0.00
2013-12-23,45,33,26,32,28,24,95,81,58,31.12,30.93,10,2,12,0.00
2013-12-24,50,36,23,35,30,23,98,78,53,31.11,30.83,17,4,19,0.00
2013-12-25,56,43,33,43,35,30,89,76,56,30.97,30.83,13,5,17,0.00
2013-12-26,52,40,31,38,34,31,99,83,58,31.01,30.89,9,3,10,0.00
2013-12-27,57,44,31,42,36,31,99,78,49,31.02,30.88,7,2,10,0.00
2013-12-28,58,47,34,42,38,33,97,73,47,30.88,30.53,13,3,16,0.00
2013-12-29,52,40,32,42,33,23,84,75,67,30.83,30.50,19,7,25,0.00
2013-12-30,41,34,28,25,21,18,72,61,46,30.97,30.80,16,5,19,0.00
2013-12-31,52,39,24,30,26,21,90,62,37,31.00,30.77,13,4,14,0.00
2014-1-1,65,47,33,50,37,27,91,71,46,30.77,30.43,24,9,30,0.00
2014-1-2,40,32,24,26,19,16,78,61,41,31.03,30.73,21,9,32,0.00